• Join FlightAware (Why Join?)
  • Login
  • US Flag 
09:05AM EDT


 

Airport Tracker/Info


-or-


 

Live Flight TrackerFlight Track Log ✈ DAL268 ✈ 01-Aug-2013 ✈ KJFK - LLBG / TLV

Flight Track Log - Related Links

Times and Time Zones

All times are in EDT time to prevent confusion due to time zone crossing. See the DAL268 flight status page for this flight to view local times or setup timezone preferences in your user account.

Time Position Orientation Groundspeed Altitude Reporting Facility
EDT Latitude Longitude Course Direction KTS MPH feet Rate Location/Type
12:00AM 40.6350 -73.7830 North  Level FlightAware
12:04AM 40.5000 -73.3755 90° East  Level FlightAware Approximate
12:07AM 40.4943 -73.3496 114° Southeast  Level FlightAware Approximate
12:08AM 40.4484 -73.1796 119° Southeast  Level FlightAware Approximate
12:24AM 40.5000 -73.3694 90° East  Level FlightAware Approximate
12:25AM 40.4533 -73.1998 105° East  Level FlightAware Approximate
12:25AM 40.6480 -73.7790 105° East 84 97  Level FlightAware
12:25AM 40.6380 -73.7870 211° Southwest 150 173 660 Level FlightAware
12:26AM 40.6240 -73.7990 213° Southwest 176 203 500 1,620 Climbing FlightAware
12:26AM 40.6050 -73.8130 209° Southwest 181 208 1,300 1,560 Climbing FlightAware
12:27AM 40.5890 -73.8250 210° Southwest 198 228 1,700 1,020 Climbing FlightAware
12:27AM 40.5720 -73.8370 208° Southwest 226 260 2,000 900 Climbing FlightAware
12:27AM 40.5600 -73.8440 204° Southwest 239 275 2,200 600 Climbing FlightAware
12:27AM 40.5520 -73.8460 191° South 249 287 2,200  Level FlightAware
12:27AM 40.5430 -73.8450 175° South 260 299 2,200 720 Level FlightAware
12:27AM 40.5340 -73.8410 161° South 266 306 2,400 1,560 Climbing FlightAware
12:28AM 40.5250 -73.8350 153° Southeast 271 312 2,600 1,320 Climbing FlightAware
12:28AM 40.5150 -73.8220 135° Southeast 281 323 2,800 1,380 Climbing FlightAware
12:28AM 40.4980 -73.7870 123° Southeast 297 342 3,400 1,500 Climbing FlightAware
12:28AM 40.4950 -73.7730 106° East 301 346 3,600 1,800 Climbing FlightAware
12:28AM 40.4950 -73.7650 90° East 303 349 3,800 2,220 Climbing FlightAware
12:29AM 40.5002 -73.7234 81° East 305 351 4,600 2,100 Climbing FlightAware ADS-B
12:29AM 40.5053 -73.6960 76° East 309 356 5,100 2,100 Climbing FlightAware ADS-B
12:29AM 40.5106 -73.6684 76° East 311 358 5,700 2,280 Climbing FlightAware ADS-B
12:29AM 40.5159 -73.6395 76° East 314 361 6,300 2,160 Climbing FlightAware ADS-B
12:30AM 40.5209 -73.6115 77° East 317 365 6,800 2,160 Climbing FlightAware ADS-B
12:30AM 40.5259 -73.5832 77° East 319 367 7,400 2,460 Climbing FlightAware ADS-B
12:30AM 40.5312 -73.5524 77° East 318 366 8,100 2,040 Climbing FlightAware ADS-B
12:30AM 40.5336 -73.5344 80° East 322 371 8,300 1,260 Climbing FlightAware ADS-B
12:30AM 40.5343 -73.5263 84° East 326 375 8,400 1,500 Climbing FlightAware ADS-B
12:31AM 40.5346 -73.5182 87° East 328 377 8,500 1,320 Climbing FlightAware ADS-B
12:31AM 40.5346 -73.5085 90° East 330 380 8,600 1,200 Climbing FlightAware ADS-B
12:31AM 40.5341 -73.4990 94° East 331 381 8,700 1,980 Climbing FlightAware ADS-B
12:31AM 40.5330 -73.4897 99° East 331 381 8,900 2,220 Climbing FlightAware ADS-B
12:31AM 40.5315 -73.4821 105° East 331 381 9,000 1,500 Climbing FlightAware ADS-B
12:31AM 40.5300 -73.4756 107° East 331 381 9,100 2,100 Climbing FlightAware ADS-B
12:31AM 40.5207 -73.4453 112° Southeast 333 383 9,700 1,920 Climbing FlightAware ADS-B
12:32AM 40.4771 -73.3721 128° Southeast 345 397 10,600 1,500 Climbing FlightAware ADS-B
12:32AM 40.4603 -73.3115 110° East 363 418 11,200 1,140 Climbing FlightAware ADS-B
12:33AM 40.4414 -73.2463 111° Southeast 385 443 11,800 1,020 Climbing FlightAware ADS-B
12:33AM 40.4201 -73.1744 111° Southeast 409 471 12,300 1,380 Climbing FlightAware ADS-B
12:34AM 40.3978 -73.0998 111° Southeast 419 482 13,300 1,920 Climbing FlightAware ADS-B
12:34AM 40.3773 -73.0290 111° Southeast 429 494 14,300 1,800 Climbing FlightAware ADS-B
12:34AM 40.3736 -73.0104 105° East 434 499 14,400 1,500 Climbing FlightAware ADS-B
12:35AM 40.3716 -72.9880 97° East 438 504 14,700 1,980 Climbing FlightAware ADS-B
12:35AM 40.3728 -72.9470 88° East 443 510 15,200 1,800 Climbing FlightAware ADS-B
12:35AM 40.3760 -72.9257 79° East 446 513 15,400 1,980 Climbing FlightAware ADS-B
12:35AM 40.3939 -72.8461 74° East 452 520 16,500 1,860 Climbing FlightAware ADS-B
12:36AM 40.4124 -72.7662 73° East 460 529 17,300 1,620 Climbing FlightAware ADS-B
12:36AM 40.4365 -72.6852 69° East 467 537 18,200 1,800 Climbing FlightAware ADS-B
12:37AM 40.4641 -72.6057 65° Northeast 471 542 19,200 1,740 Climbing FlightAware ADS-B
12:37AM 40.4928 -72.5270 64° Northeast 477 549 20,000 1,380 Climbing FlightAware ADS-B
12:38AM 40.5400 -72.3990 64° Northeast 488 562 21,100 1,380 Climbing FlightAware
12:38AM 40.5515 -72.3679 64° Northeast 477 549 21,400 1,080 Climbing FlightAware ADS-B
12:39AM 40.5894 -72.2645 64° Northeast 506 582 22,000 1,140 Climbing FlightAware ADS-B
12:40AM 40.6331 -72.1442 64° Northeast 512 589 23,000 1,260 Climbing FlightAware ADS-B
12:40AM 40.6649 -72.0570 64° Northeast 520 598 23,600 1,260 Climbing FlightAware ADS-B
12:41AM 40.7010 -71.9576 64° Northeast 523 602 24,400 1,260 Climbing FlightAware ADS-B
12:42AM 40.7711 -71.7627 65° Northeast 534 615 25,800 1,080 Climbing FlightAware ADS-B
12:42AM 40.8030 -71.6740 65° Northeast 540 621 26,200 540 Climbing FlightAware
12:43AM 40.8560 -71.5270 64° Northeast 545 627 26,600 240 Climbing FlightAware
12:44AM 40.8910 -71.4330 64° Northeast 545 627 26,600 900 Level FlightAware
12:45AM 40.9330 -71.3110 65° Northeast 556 640 27,700 2,040 Climbing FlightAware
12:45AM 40.9720 -71.1990 65° Northeast 554 638 28,900 1,680 Climbing FlightAware
12:46AM 41.0162 -71.0727 65° Northeast 558 642 29,700 1,080 Climbing FlightAware ADS-B
12:47AM 41.0650 -70.9330 65° Northeast 555 639 30,500 900 Climbing FlightAware
12:47AM 41.1080 -70.8090 65° Northeast 558 642 31,000 360 Climbing FlightAware
12:48AM 41.1460 -70.6970 66° East 558 642 31,000  Level FlightAware
12:48AM 41.1830 -70.5910 65° Northeast 559 643 31,000  Level FlightAware
12:49AM 41.2150 -70.4950 66° East 559 643 31,000  Level FlightAware
12:50AM 41.2480 -70.3960 66° East 559 643 31,000  Level FlightAware
12:50AM 41.2800 -70.3000 66° East 559 643 31,000  Level FlightAware
12:51AM 41.3130 -70.2030 66° East 559 643 31,000  Level FlightAware
12:52AM 41.3450 -70.1070 66° East 559 643 31,000  Level FlightAware
12:52AM 41.3770 -70.0110 66° East 559 643 31,000  Level FlightAware
12:53AM 41.4090 -69.9140 66° East 559 643 31,000  Level FlightAware
12:53AM 41.4410 -69.8180 66° East 559 643 31,000  Level FlightAware
12:54AM 41.4730 -69.7220 66° East 559 643 31,000  Level FlightAware
12:55AM 41.5060 -69.6250 66° East 559 643 31,000  Level FlightAware
12:55AM 41.5380 -69.5280 66° East 559 643 31,000  Level FlightAware
12:56AM 41.5710 -69.4290 66° East 559 643 31,000  Level FlightAware
12:56AM 41.6030 -69.3320 66° East 559 643 31,000  Level FlightAware
12:57AM 41.6350 -69.2360 66° East 559 643 31,000  Level FlightAware
12:58AM 41.6670 -69.1390 66° East 559 643 31,000  Level FlightAware
12:59AM 41.8780 -68.4950 66° East 553 636 31,000  Level FlightAware
01:00AM 41.9400 -68.3030 66° East 552 635 31,000  Level FlightAware
01:01AM 41.9710 -68.2040 67° East 551 634 31,000  Level FlightAware
01:02AM 42.0160 -68.0610 67° East 552 635 31,000  Level FlightAware
01:02AM 42.0480 -67.9570 67° East 554 638 31,000  Level FlightAware
01:03AM 42.0860 -67.8360 67° East 553 636 31,000  Level FlightAware
01:03AM 42.1180 -67.7320 67° East 553 636 31,000  Level FlightAware
01:04AM 42.1470 -67.6410 67° East 552 635 31,000  Level FlightAware
01:05AM 42.1790 -67.5380 67° East 552 635 31,000  Level FlightAware
01:05AM 42.2090 -67.4410 67° East 552 635 31,000  Level FlightAware
01:06AM 42.2400 -67.3440 67° East 552 635 31,000  Level FlightAware
01:06AM 42.2710 -67.2470 67° East 552 635 31,000  Level FlightAware
01:07AM 42.3010 -67.1500 67° East 552 635 31,000  Level FlightAware
01:08AM 42.3550 -66.9500 70° East 555 639 31,000  Level FlightAware
01:08AM 42.3900 -66.8340 68° East 555 639 31,000  Level FlightAware
01:09AM 42.4190 -66.7350 68° East 555 639 31,000  Level FlightAware
01:09AM 42.4580 -66.6060 68° East 555 639 31,000  Level FlightAware
01:10AM 42.4880 -66.5040 68° East 555 639 31,000  Level FlightAware
01:11AM 42.5340 -66.3540 67° East 554 638 31,000  Level FlightAware
01:11AM 42.5690 -66.2320 69° East 554 638 31,000  Level FlightAware
01:12AM 42.6050 -66.1100 68° East 553 636 31,000  Level FlightAware
01:12AM 42.6310 -66.0230 68° East 553 636 31,000  Level FlightAware
01:13AM 42.6680 -65.8960 68° East 552 635 31,000  Level FlightAware
01:14AM 42.7050 -65.7650 69° East 552 635 31,000  Level FlightAware
01:14AM 42.7330 -65.6660 69° East 552 635 31,000  Level FlightAware
01:15AM 42.7720 -65.5330 68° East 550 633 31,000  Level FlightAware
01:16AM 42.8010 -65.4280 69° East 550 633 31,000  Level FlightAware
01:16AM 42.8410 -65.2890 69° East 548 631 31,000  Level FlightAware
01:17AM 42.8710 -65.1830 69° East 547 629 31,000  Level FlightAware
01:17AM 42.9130 -65.0330 69° East 547 629 31,000  Level FlightAware
01:18AM 42.9530 -64.8910 69° East 546 628 31,000  Level FlightAware
01:19AM 42.9780 -64.7980 70° East 545 627 31,000  Level FlightAware
01:19AM 43.0200 -64.6450 69° East 544 626 31,000  Level FlightAware
01:20AM 43.0510 -64.5340 69° East 544 626 31,000  Level FlightAware
01:21AM 43.0800 -64.4270 70° East 544 626 31,000  Level FlightAware
01:21AM 43.1120 -64.3100 69° East 544 626 31,000  Level FlightAware
01:22AM 43.1380 -64.2140 70° East 545 627 31,000  Level FlightAware
01:22AM 43.1720 -64.0860 70° East 546 628 31,000  Level FlightAware
01:23AM 43.2090 -63.9500 69° East 547 629 31,000  Level FlightAware
01:24AM 43.2350 -63.8500 70° East 547 629 31,000  Level FlightAware
01:24AM 43.2680 -63.7250 70° East 548 631 31,000  Level FlightAware
01:25AM 43.2980 -63.6130 70° East 547 629 31,000  Level FlightAware
01:25AM 43.3320 -63.4810 70° East 547 629 31,000  Level FlightAware
01:26AM 43.3660 -63.3530 70° East 548 631 31,000  Level FlightAware
01:27AM 43.3920 -63.2510 71° East 547 629 31,000  Level FlightAware
01:27AM 43.4200 -63.1440 70° East 545 627 31,000  Level FlightAware
01:28AM 43.4480 -63.0330 71° East 545 627 31,000  Level FlightAware
01:28AM 43.4830 -62.8980 70° East 544 626 31,000  Level FlightAware
01:29AM 43.5180 -62.7610 71° East 542 624 31,000  Level FlightAware
01:30AM 43.5470 -62.6460 71° East 542 624 31,000  Level FlightAware
01:30AM 43.5800 -62.5170 71° East 543 625 31,000  Level FlightAware
01:31AM 43.6140 -62.3800 71° East 541 623 31,000  Level FlightAware
01:32AM 43.6420 -62.2700 71° East 542 624 31,000  Level FlightAware
01:32AM 43.6700 -62.1570 71° East 542 624 31,000 480 Level FlightAware
01:33AM 43.6980 -62.0420 71° East 543 625 31,600 660 Climbing FlightAware
01:34AM 43.7320 -61.9050 71° East 543 625 31,900 660 Climbing FlightAware
01:34AM 43.7600 -61.7900 71° East 543 625 32,500 840 Climbing FlightAware
01:35AM 43.7940 -61.6490 71° East 545 627 33,000 360 Climbing FlightAware
01:35AM 43.8200 -61.5390 72° East 545 627 33,000  Level FlightAware
01:36AM 43.8440 -61.4370 72° East 545 627 33,000  Level FlightAware
01:37AM 43.8670 -61.3350 73° East 545 627 33,000  Level FlightAware
01:37AM 43.8910 -61.2330 72° East 545 627 33,000  Level FlightAware
01:38AM 43.9150 -61.1310 72° East 545 627 33,000  Level FlightAware
01:38AM 43.9400 -61.0270 72° East 545 627 33,000  Level FlightAware
01:39AM 43.9630 -60.9250 73° East 545 627 33,000  Level FlightAware
01:40AM 43.9880 -60.8200 72° East 545 627 33,000  Level FlightAware
01:40AM 44.0120 -60.7180 72° East 545 627 33,000  Level FlightAware
01:41AM 44.0360 -60.6130 72° East 545 627 33,000  Level FlightAware
01:42AM 44.0610 -60.5050 72° East 545 627 33,000  Level FlightAware
01:42AM 44.1340 -60.1930 72° East 539 620 33,000  Level FlightAware
01:43AM 44.1570 -60.0880 73° East 539 620 33,000  Level FlightAware
01:43AM 44.1820 -59.9750 73° East 539 620 33,000  Level FlightAware
01:44AM 44.2130 -59.8370 73° East 538 619 33,000  Level FlightAware
01:45AM 44.2400 -59.7250 71° East 538 619 33,000  Level FlightAware
01:45AM 44.2630 -59.6240 72° East 538 619 33,000  Level FlightAware
01:46AM 44.2870 -59.5200 72° East 538 619 33,000  Level FlightAware
01:46AM 44.3110 -59.4160 72° East 538 619 33,000  Level FlightAware
01:47AM 44.3490 -59.2190 75° East 539 620 33,000  Level FlightAware
01:48AM 44.3740 -59.1030 73° East 539 620 33,000  Level FlightAware
01:48AM 44.4000 -58.9850 73° East 539 620 33,000  Level FlightAware
01:49AM 44.4240 -58.8690 74° East 539 620 33,000  Level FlightAware
01:49AM 44.4510 -58.7440 73° East 537 618 33,000  Level FlightAware
01:50AM 44.4740 -58.6340 74° East 536 617 33,000  Level FlightAware
01:50AM 44.4990 -58.5150 74° East 535 616 33,000  Level FlightAware
01:51AM 44.5240 -58.3940 74° East 535 616 33,000  Level FlightAware
01:52AM 44.5480 -58.2760 74° East 534 615 33,000  Level FlightAware
01:52AM 44.5730 -58.1570 74° East 534 615 33,000  Level FlightAware
01:53AM 44.5940 -58.0510 74° East 534 615 33,000  Level FlightAware
01:54AM 44.6220 -57.9130 74° East 534 615 33,000  Level FlightAware
01:54AM 44.6450 -57.8000 74° East 531 611 33,000  Level FlightAware
01:55AM 44.6730 -57.6580 74° East 531 611 33,000  Level FlightAware
01:55AM 44.6940 -57.5570 74° East 531 611 33,000  Level FlightAware
01:56AM 44.7250 -57.3980 75° East 527 606 33,000  Level FlightAware
01:57AM 44.7560 -57.2390 75° East 526 605 33,000  Level FlightAware
01:58AM 44.7770 -57.1380 74° East 526 605 33,000  Level FlightAware
01:58AM 44.8060 -56.9810 75° East 523 602 33,000  Level FlightAware
01:59AM 44.8270 -56.8720 75° East 522 601 33,000  Level FlightAware
02:00AM 44.8560 -56.7230 75° East 523 602 33,000  Level FlightAware
02:00AM 44.8770 -56.6220 74° East 523 602 33,000  Level FlightAware
02:01AM 44.8970 -56.5220 74° East 523 602 33,000  Level FlightAware
02:01AM 44.9180 -56.4190 74° East 523 602 33,000  Level FlightAware
02:02AM 44.9380 -56.3180 74° East 523 602 33,000  Level FlightAware
02:03AM 44.9590 -56.2180 73° East 523 602 33,000  Level FlightAware
02:03AM 44.9800 -56.1140 74° East 523 602 33,000  Level FlightAware
02:04AM 45.0000 -56.0140 74° East 523 602 33,000  Level FlightAware
02:04AM 45.0200 -55.9130 74° East 523 602 33,000  Level FlightAware
02:05AM 45.0410 -55.8120 74° East 523 602 33,000  Level FlightAware
02:06AM 45.0610 -55.7110 74° East 523 602 33,000  Level FlightAware
02:06AM 45.0820 -55.6110 73° East 523 602 33,000  Level FlightAware
02:07AM 45.1020 -55.5100 74° East 523 602 33,000  Level FlightAware
02:07AM 45.1220 -55.4090 74° East 523 602 33,000  Level FlightAware
02:08AM 45.1430 -55.3080 74° East 523 602 33,000  Level FlightAware
02:09AM 45.1630 -55.2070 74° East 523 602 33,000  Level FlightAware
02:09AM 45.2250 -54.7980 78° East 538 619 33,000  Level FlightAware
02:10AM 45.2470 -54.6850 75° East 538 619 33,000  Level FlightAware
02:10AM 45.2710 -54.5450 76° East 540 621 33,000  Level FlightAware
02:11AM 45.2910 -54.4330 76° East 541 623 33,000  Level FlightAware
02:12AM 45.3140 -54.3020 76° East 543 625 33,000  Level FlightAware
02:12AM 45.3390 -54.1590 76° East 544 626 33,000  Level FlightAware
02:13AM 45.3570 -54.0590 76° East 544 626 33,000  Level FlightAware
02:13AM 45.3750 -53.9530 76° East 544 626 33,000  Level FlightAware
02:14AM 45.3940 -53.8460 76° East 544 626 33,000  Level FlightAware
02:15AM 45.4120 -53.7400 76° East 544 626 33,000  Level FlightAware
02:15AM 45.4310 -53.6330 76° East 544 626 33,000  Level FlightAware
02:16AM 45.4500 -53.5270 76° East 544 626 33,000  Level FlightAware
02:16AM 45.4690 -53.4170 76° East 544 626 33,000  Level FlightAware
02:17AM 45.4860 -53.3170 76° East 544 626 33,000  Level FlightAware
02:18AM 45.5050 -53.2100 76° East 544 626 33,000  Level FlightAware
02:18AM 45.5240 -53.1030 76° East 544 626 33,000  Level FlightAware
02:19AM 45.5420 -52.9970 76° East 544 626 33,000  Level FlightAware
02:19AM 45.5610 -52.8870 76° East 544 626 33,000  Level FlightAware
02:20AM 45.5800 -52.7800 76° East 544 626 33,000  Level FlightAware
02:21AM 45.6000 -52.6650 76° East 544 626 33,000  Level FlightAware
02:21AM 45.6190 -52.5580 76° East 544 626 33,000  Level FlightAware
02:22AM 45.6833 -52.0500 76° East 550 633 33,000  Level Gander Center
02:23AM 45.7000 -51.8833 82° East 550 633 33,000  Level Gander Center
02:24AM 45.7333 -51.6667 77° East 550 633 33,000  Level Gander Center
02:25AM 45.7667 -51.4333 78° East 550 633 33,000  Level Gander Center
02:26AM 45.8000 -51.2333 76° East 550 633 33,000  Level Gander Center
02:27AM 45.8333 -51.0167 77° East 550 633 33,000  Level Gander Center
02:28AM 45.8667 -50.7667 79° East 550 633 33,000  Level Gander Center
02:29AM 45.9000 -50.5167 79° East 550 633 33,000  Level Gander Center
02:30AM 45.9333 -50.3167 76° East 550 633 33,000  Level Gander Center
02:31AM 45.9500 -50.1000 84° East 550 633 33,000  Level Gander Center
02:32AM 45.9667 -49.9500 81° East 550 633 33,000  Level Gander Center
02:33AM 46.0000 -50.0000 78° East 568 654 33,000  Level ETMS Enhanced Traffic Management System
02:34AM 46.0500 -49.4500 78° East 550 633 33,000  Level Gander Center
02:35AM 46.0667 -49.2500 83° East 560 644 33,000  Level Gander Center
02:36AM 46.1167 -49.0167 73° East 560 644 33,000  Level Gander Center
02:37AM 46.1333 -48.8167 83° East 570 656 33,000  Level Gander Center
02:38AM 46.1833 -48.5667 74° East 560 644 33,000  Level Gander Center
02:41AM 46.2343 -48.1828 79° East  Level FlightAware Approximate
02:48AM 46.4186 -46.6974 79° East  Level FlightAware Approximate
02:49AM 46.4433 -46.4844 80° East  Level FlightAware Approximate
02:50AM 46.4677 -46.2712 81° East  Level FlightAware Approximate
02:51AM 46.4916 -46.0578 81° East  Level FlightAware Approximate
02:52AM 46.5152 -45.8443 81° East  Level FlightAware Approximate
02:53AM 46.5383 -45.6305 81° East  Level FlightAware Approximate
02:54AM 46.5611 -45.4166 81° East  Level FlightAware Approximate
02:55AM 46.5835 -45.2025 81° East  Level FlightAware Approximate
02:56AM 46.6054 -44.9882 81° East  Level FlightAware Approximate
02:57AM 46.6270 -44.7737 82° East  Level FlightAware Approximate
02:58AM 46.6482 -44.5591 82° East  Level FlightAware Approximate
02:59AM 46.6689 -44.3443 82° East  Level FlightAware Approximate
03:00AM 46.6893 -44.1293 82° East  Level FlightAware Approximate
03:01AM 46.7092 -43.9142 82° East  Level FlightAware Approximate
03:02AM 46.7288 -43.6989 82° East  Level FlightAware Approximate
03:03AM 46.7479 -43.4835 83° East  Level FlightAware Approximate
03:04AM 46.7667 -43.2679 83° East  Level FlightAware Approximate
03:05AM 46.7850 -43.0522 83° East  Level FlightAware Approximate
03:06AM 46.8030 -42.8363 83° East  Level FlightAware Approximate
03:07AM 46.8205 -42.6203 83° East  Level FlightAware Approximate
03:08AM 46.8376 -42.4041 83° East  Level FlightAware Approximate
03:09AM 46.8543 -42.1878 83° East  Level FlightAware Approximate
03:10AM 46.8706 -41.9714 84° East  Level FlightAware Approximate
03:11AM 46.8865 -41.7548 84° East  Level FlightAware Approximate
03:12AM 46.9020 -41.5381 84° East  Level FlightAware Approximate
03:13AM 46.9171 -41.3213 84° East  Level FlightAware Approximate
03:14AM 46.9318 -41.1044 84° East  Level FlightAware Approximate
03:15AM 46.9460 -40.8873 84° East  Level FlightAware Approximate
03:16AM 46.9599 -40.6702 85° East  Level FlightAware Approximate
03:17AM 46.9733 -40.4529 85° East  Level FlightAware Approximate
03:18AM 46.9864 -40.2355 85° East  Level FlightAware Approximate
03:18AM 47.0000 -40.0000 95° East 568 654 33,000  Level ETMS Enhanced Traffic Management System
03:19AM 46.9990 -40.0181 85° East  Level FlightAware Approximate
03:20AM 46.9876 -39.8007 95° East  Level FlightAware Approximate
03:21AM 46.9738 -39.5835 95° East  Level FlightAware Approximate
03:22AM 46.9595 -39.3663 95° East  Level FlightAware Approximate
03:23AM 46.9448 -39.1493 96° East  Level FlightAware Approximate
03:24AM 46.8997 -38.3867 96° East 568 654 33,000  Level FlightAware Transoceanic
03:25AM 46.8835 -38.1568 96° East 568 654 33,000  Level FlightAware Transoceanic
03:26AM 46.8669 -37.9270 96° East 568 654 33,000  Level FlightAware Transoceanic
03:27AM 46.8498 -37.6973 96° East 568 654 33,000  Level FlightAware Transoceanic
03:28AM 46.8322 -37.4678 96° East 568 654 33,000  Level FlightAware Transoceanic
03:29AM 46.8142 -37.2384 97° East 568 654 33,000  Level FlightAware Transoceanic
03:30AM 46.7958 -37.0092 97° East 568 654 33,000  Level FlightAware Transoceanic
03:31AM 46.7769 -36.7802 97° East 568 654 33,000  Level FlightAware Transoceanic
03:32AM 46.7575 -36.5513 97° East 568 654 33,000  Level FlightAware Transoceanic
03:33AM 46.7376 -36.3225 97° East 568 654 33,000  Level FlightAware Transoceanic
03:34AM 46.7173 -36.0940 97° East 568 654 33,000  Level FlightAware Transoceanic
03:35AM 46.6966 -35.8656 98° East 568 654 33,000  Level FlightAware Transoceanic
03:36AM 46.6754 -35.6374 98° East 568 654 33,000  Level FlightAware Transoceanic
03:37AM 46.6537 -35.4094 98° East 568 654 33,000  Level FlightAware Transoceanic
03:38AM 46.6316 -35.1815 98° East 568 654 33,000  Level FlightAware Transoceanic
03:39AM 46.6091 -34.9539 98° East 568 654 33,000  Level FlightAware Transoceanic
03:40AM 46.5860 -34.7265 98° East 568 654 33,000  Level FlightAware Transoceanic
03:41AM 46.5626 -34.4992 99° East 568 654 33,000  Level FlightAware Transoceanic
03:42AM 46.5387 -34.2721 99° East 568 654 33,000  Level FlightAware Transoceanic
03:43AM 46.5143 -34.0453 99° East 568 654 33,000  Level FlightAware Transoceanic
03:44AM 46.4895 -33.8186 99° East 568 654 33,000  Level FlightAware Transoceanic
03:45AM 46.4642 -33.5922 99° East 568 654 33,000  Level FlightAware Transoceanic
03:46AM 46.4385 -33.3659 99° East 568 654 33,000  Level FlightAware Transoceanic
03:47AM 46.4124 -33.1399 100° East 568 654 33,000  Level FlightAware Transoceanic
03:48AM 46.3858 -32.9141 100° East 568 654 33,000  Level FlightAware Transoceanic
03:49AM 46.3588 -32.6885 100° East 568 654 33,000  Level FlightAware Transoceanic
03:50AM 46.3313 -32.4632 100° East 568 654 33,000  Level FlightAware Transoceanic
03:51AM 46.3033 -32.2380 100° East 568 654 33,000  Level FlightAware Transoceanic
03:52AM 46.2750 -32.0131 100° East 568 654 33,000  Level FlightAware Transoceanic
03:53AM 46.2462 -31.7885 101° East 568 654 33,000  Level FlightAware Transoceanic
03:54AM 46.2169 -31.5641 101° East 568 654 33,000  Level FlightAware Transoceanic
03:55AM 46.1873 -31.3399 101° East 568 654 33,000  Level FlightAware Transoceanic
03:56AM 46.1571 -31.1159 101° East 568 654 33,000  Level FlightAware Transoceanic
03:57AM 46.1266 -30.8922 101° East 568 654 33,000  Level FlightAware Transoceanic
03:58AM 46.0956 -30.6688 101° East 568 654 33,000  Level FlightAware Transoceanic
03:59AM 46.0642 -30.4456 102° East 568 654 33,000  Level FlightAware Transoceanic
04:00AM 46.0323 -30.2227 102° East 568 654 33,000  Level FlightAware Transoceanic
04:01AM 46.0019 -30.0128 102° East  Level FlightAware Approximate
04:02AM 45.9711 -29.8032 102° East  Level FlightAware Approximate
04:03AM 45.9892 -29.8125 95° East  Level FlightAware Approximate
04:04AM 45.9766 -29.5990 95° East  Level FlightAware Approximate
04:04AM 46.0000 -30.0000 95° East 541 623 33,000  Level ETMS Enhanced Traffic Management System
04:05AM 45.9635 -29.3857 95° East  Level FlightAware Approximate
04:06AM 45.9501 -29.1724 95° East  Level FlightAware Approximate
04:07AM 45.9362 -28.9592 95° East  Level FlightAware Approximate
04:08AM 45.9220 -28.7461 95° East  Level FlightAware Approximate
04:09AM 45.9074 -28.5332 96° East  Level FlightAware Approximate
04:10AM 45.8766 -28.0599 96° East 541 623 33,000  Level FlightAware Transoceanic
04:11AM 45.8609 -27.8449 96° East 541 623 33,000  Level FlightAware Transoceanic
04:12AM 45.8447 -27.6300 96° East 541 623 33,000  Level FlightAware Transoceanic
04:13AM 45.8282 -27.4152 96° East 541 623 33,000  Level FlightAware Transoceanic
04:14AM 45.8112 -27.2006 97° East 541 623 33,000  Level FlightAware Transoceanic
04:15AM 45.7939 -26.9861 97° East 541 623 33,000  Level FlightAware Transoceanic
04:16AM 45.7761 -26.7717 97° East 541 623 33,000  Level FlightAware Transoceanic
04:17AM 45.7580 -26.5575 97° East 541 623 33,000  Level FlightAware Transoceanic
04:18AM 45.7395 -26.3434 97° East 541 623 33,000  Level FlightAware Transoceanic
04:19AM 45.7205 -26.1295 97° East 541 623 33,000  Level FlightAware Transoceanic
04:20AM 45.7012 -25.9157 97° East 541 623 33,000  Level FlightAware Transoceanic
04:21AM 45.6814 -25.7020 98° East 541 623 33,000  Level FlightAware Transoceanic
04:22AM 45.6613 -25.4885 98° East 541 623 33,000  Level FlightAware Transoceanic
04:23AM 45.6407 -25.2752 98° East 541 623 33,000  Level FlightAware Transoceanic
04:24AM 45.6198 -25.0620 98° East 541 623 33,000  Level FlightAware Transoceanic
04:25AM 45.5985 -24.8490 98° East 541 623 33,000  Level FlightAware Transoceanic
04:26AM 45.5768 -24.6361 98° East 541 623 33,000  Level FlightAware Transoceanic
04:27AM 45.5546 -24.4235 99° East 541 623 33,000  Level FlightAware Transoceanic
04:28AM 45.5321 -24.2109 99° East 541 623 33,000  Level FlightAware Transoceanic
04:29AM 45.5092 -23.9986 99° East 541 623 33,000  Level FlightAware Transoceanic
04:30AM 45.4859 -23.7864 99° East 541 623 33,000  Level FlightAware Transoceanic
04:31AM 45.4622 -23.5744 99° East 541 623 33,000  Level FlightAware Transoceanic
04:32AM 45.4381 -23.3626 99° East 541 623 33,000  Level FlightAware Transoceanic
04:33AM 45.4136 -23.1509 99° East 541 623 33,000  Level FlightAware Transoceanic
04:34AM 45.3888 -22.9395 100° East 541 623 33,000  Level FlightAware Transoceanic
04:35AM 45.3635 -22.7282 100° East 541 623 33,000  Level FlightAware Transoceanic
04:36AM 45.3379 -22.5172 100° East 541 623 33,000  Level FlightAware Transoceanic
04:37AM 45.3118 -22.3063 100° East 541 623 33,000  Level FlightAware Transoceanic
04:38AM 45.2854 -22.0956 100° East 541 623 33,000  Level FlightAware Transoceanic
04:39AM 45.2586 -21.8851 100° East 541 623 33,000  Level FlightAware Transoceanic
04:40AM 45.2314 -21.6748 100° East 541 623 33,000  Level FlightAware Transoceanic
04:41AM 45.2038 -21.4647 101° East 541 623 33,000  Level FlightAware Transoceanic
04:42AM 45.1758 -21.2549 101° East 541 623 33,000  Level FlightAware Transoceanic
04:43AM 45.1475 -21.0452 101° East 541 623 33,000  Level FlightAware Transoceanic
04:44AM 45.1188 -20.8357 101° East 541 623 33,000  Level FlightAware Transoceanic
04:45AM 45.0896 -20.6265 101° East 541 623 33,000  Level FlightAware Transoceanic
04:46AM 45.0601 -20.4174 101° East 541 623 33,000  Level FlightAware Transoceanic
04:47AM 45.0303 -20.2086 102° East 541 623 33,000  Level FlightAware Transoceanic
04:48AM 45.0003 -20.0023 102° East  Level FlightAware Approximate
04:49AM 44.9696 -19.7963 102° East  Level FlightAware Approximate
04:50AM 44.9641 -19.8005 104° East  Level FlightAware Approximate
04:51AM 44.9271 -19.5968 104° East  Level FlightAware Approximate
04:52AM 44.8897 -19.3933 104° East  Level FlightAware Approximate
04:53AM 44.8520 -19.1901 105° East  Level FlightAware Approximate
04:54AM 44.8138 -18.9872 105° East  Level FlightAware Approximate
04:55AM 44.7753 -18.7845 105° East  Level FlightAware Approximate
04:56AM 44.7365 -18.5821 105° East  Level FlightAware Approximate
04:57AM 44.6973 -18.3800 105° East  Level FlightAware Approximate
04:58AM 44.6578 -18.1781 105° East  Level FlightAware Approximate
04:59AM 44.6179 -17.9766 105° East  Level FlightAware Approximate
05:00AM 44.5776 -17.7753 106° East  Level FlightAware Approximate
05:01AM 44.5370 -17.5742 106° East  Level FlightAware Approximate
05:02AM 44.4961 -17.3735 106° East  Level FlightAware Approximate
05:03AM 44.4547 -17.1730 106° East  Level FlightAware Approximate
05:04AM 44.4131 -16.9729 106° East  Level FlightAware Approximate
05:05AM 44.3711 -16.7730 106° East  Level FlightAware Approximate
05:06AM 44.3287 -16.5734 106° East  Level FlightAware Approximate
05:07AM 44.2860 -16.3741 107° East  Level FlightAware Approximate
05:08AM 44.2430 -16.1751 107° East  Level FlightAware Approximate
05:09AM 44.1996 -15.9764 107° East  Level FlightAware Approximate
05:10AM 44.1558 -15.7780 107° East  Level FlightAware Approximate
05:11AM 44.1117 -15.5798 107° East  Level FlightAware Approximate
05:12AM 44.0673 -15.3820 107° East  Level FlightAware Approximate
05:13AM 44.0225 -15.1844 107° East  Level FlightAware Approximate
05:14AM 43.9774 -14.9872 108° East  Level FlightAware Approximate
05:15AM 43.9320 -14.7903 108° East  Level FlightAware Approximate
05:16AM 43.8862 -14.5936 108° East  Level FlightAware Approximate
05:17AM 43.8401 -14.3973 108° East  Level FlightAware Approximate
05:18AM 43.7936 -14.2013 108° East  Level FlightAware Approximate
05:19AM 43.7468 -14.0055 108° East  Level FlightAware Approximate
05:20AM 43.6997 -13.8101 108° East  Level FlightAware Approximate
05:21AM 43.6523 -13.6150 109° East  Level FlightAware Approximate
05:22AM 43.6045 -13.4202 109° East  Level FlightAware Approximate
05:23AM 43.5564 -13.2257 109° East  Level FlightAware Approximate
05:24AM 43.5091 -13.0364 109° East  Level FlightAware Approximate
05:25AM 43.4825 -12.8402 99° East  Level FlightAware Approximate
05:26AM 43.4605 -12.6424 99° East  Level FlightAware Approximate
05:27AM 43.4381 -12.4448 99° East  Level FlightAware Approximate
05:28AM 43.4154 -12.2474 99° East  Level FlightAware Approximate
05:29AM 43.3924 -12.0501 99° East  Level FlightAware Approximate
05:30AM 43.3690 -11.8530 99° East  Level FlightAware Approximate
05:31AM 43.3459 -11.6558 99° East  Level FlightAware Approximate
05:32AM 43.3226 -11.4588 99° East  Level FlightAware Approximate
05:32AM 43.2410 -10.6680 99° East 550 633 34,000  Level FlightAware
05:33AM 43.2989 -11.2620 99° East  Level FlightAware Approximate
05:33AM 43.2210 -10.4720 98° East 548 631 34,000  Level FlightAware
05:34AM 43.2090 -10.3590 98° East 547 629 34,000  Level FlightAware
05:34AM 43.1950 -10.2310 98° East 546 628 34,000  Level FlightAware
05:35AM 43.1810 -10.1120 99° East 546 628 34,000  Level FlightAware
05:36AM 43.1660 -9.9930 100° East 546 628 34,000  Level FlightAware
05:36AM 43.1510 -9.8750 100° East 545 627 34,000  Level FlightAware
05:37AM 43.1350 -9.7580 101° East 544 626 34,000  Level FlightAware
05:37AM 43.1180 -9.6370 101° East 542 624 34,000  Level FlightAware
05:38AM 43.1010 -9.5190 101° East 541 623 34,000  Level FlightAware
05:38AM 43.0870 -9.4200 101° East 538 619 34,000  Level FlightAware
05:39AM 43.0680 -9.2880 101° East 537 618 34,000  Level FlightAware
05:39AM 43.0550 -9.2020 102° East 536 617 34,000  Level FlightAware
05:40AM 43.0340 -9.0530 101° East 537 618 34,000  Level FlightAware
05:41AM 43.0160 -8.9370 102° East 537 618 34,000  Level FlightAware
05:42AM 42.9940 -8.7880 101° East 537 618 34,000  Level FlightAware
05:42AM 42.9760 -8.6700 102° East 539 620 34,000  Level FlightAware
05:43AM 42.9580 -8.5510 102° East 541 623 34,000  Level FlightAware
05:43AM 42.9420 -8.4320 100° East 547 629 34,000  Level FlightAware
05:44AM 42.9310 -8.3120 97° East 554 638 34,000  Level FlightAware
05:45AM 42.9230 -8.1870 95° East 560 644 34,000  Level FlightAware
05:45AM 42.9160 -8.0480 94° East 561 646 34,000  Level FlightAware
05:46AM 42.9080 -7.9250 95° East 562 647 34,000  Level FlightAware
05:46AM 42.9010 -7.8040 94° East 559 643 34,000  Level FlightAware
05:47AM 42.8920 -7.6820 96° East 558 642 34,000  Level FlightAware
05:47AM 42.8830 -7.5580 96° East 557 641 34,000  Level FlightAware
05:48AM 42.8740 -7.4340 96° East 551 634 34,000  Level FlightAware
05:49AM 42.8660 -7.3140 95° East 547 629 34,000  Level FlightAware
05:49AM 42.8570 -7.1970 96° East 545 627 34,000  Level FlightAware
05:50AM 42.8480 -7.0770 96° East 545 627 34,000  Level FlightAware
05:50AM 42.8390 -6.9570 96° East 541 623 34,000  Level FlightAware
05:51AM 42.8290 -6.8390 97° East 538 619 34,000  Level FlightAware
05:52AM 42.8210 -6.7240 95° East 538 619 34,000  Level FlightAware
05:52AM 42.8120 -6.6130 96° East 537 618 34,000  Level FlightAware
05:53AM 42.8010 -6.4800 96° East 535 616 34,000  Level FlightAware
05:53AM 42.7920 -6.3640 96° East 534 615 34,000  Level FlightAware
05:54AM 42.7820 -6.2460 97° East 533 613 34,000  Level FlightAware
05:55AM 42.7730 -6.1340 96° East 532 612 34,000  Level FlightAware
05:55AM 42.7620 -5.9990 96° East 533 613 34,000  Level FlightAware
05:56AM 42.7500 -5.8630 97° East 534 615 34,000  Level FlightAware
05:56AM 42.7420 -5.7650 96° East 534 615 34,000  Level FlightAware
05:57AM 42.7320 -5.6470 97° East 534 615 34,000  Level FlightAware
05:58AM 42.7220 -5.5340 97° East 533 613 34,000  Level FlightAware
05:58AM 42.7120 -5.4150 96° East 534 615 34,000  Level FlightAware
05:59AM 42.7010 -5.2960 97° East 535 616 34,000  Level FlightAware
05:59AM 42.6910 -5.1790 97° East 534 615 34,000  Level FlightAware
06:00AM 42.6800 -5.0640 97° East 534 615 34,000  Level FlightAware
06:00AM 42.6690 -4.9440 97° East 534 615 34,000  Level FlightAware
06:01AM 42.6590 -4.8320 97° East 532 612 34,000  Level FlightAware
06:02AM 42.6470 -4.7120 98° East 531 611 34,000  Level FlightAware
06:02AM 42.6370 -4.6000 97° East 532 612 34,000  Level FlightAware
06:03AM 42.6260 -4.4840 97° East 532 612 34,000  Level FlightAware
06:03AM 42.6140 -4.3680 98° East 532 612 34,000  Level FlightAware
06:04AM 42.6020 -4.2510 98° East 534 615 34,000  Level FlightAware
06:05AM 42.5900 -4.1330 98° East 534 615 34,000  Level FlightAware
06:05AM 42.5790 -4.0160 97° East 533 613 34,000  Level FlightAware
06:06AM 42.5670 -3.9020 98° East 533 613 34,000  Level FlightAware
06:06AM 42.5590 -3.8210 98° East 533 613 34,000  Level FlightAware
06:07AM 42.5450 -3.6880 98° East 532 612 34,000  Level FlightAware
06:07AM 42.5330 -3.5710 98° East 532 612 34,000  Level FlightAware
06:08AM 42.5220 -3.4690 98° East 532 612 34,000  Level FlightAware
06:09AM 42.5070 -3.3270 98° East 533 613 34,000  Level FlightAware
06:09AM 42.4940 -3.2100 99° East 534 615 34,000  Level FlightAware
06:10AM 42.4800 -3.0840 99° East 533 613 34,000  Level FlightAware
06:10AM 42.4670 -2.9600 98° East 529 609 34,000  Level FlightAware
06:11AM 42.4470 -2.8340 102° East 524 603 34,000  Level FlightAware
06:12AM 42.4300 -2.7460 105° East 524 603 34,000  Level FlightAware
06:12AM 42.4090 -2.6420 105° East 522 601 34,000  Level FlightAware
06:13AM 42.3890 -2.5460 106° East 524 603 34,000  Level FlightAware
06:13AM 42.3620 -2.4150 106° East 522 601 34,000  Level FlightAware
06:14AM 42.3420 -2.3160 105° East 522 601 34,000  Level FlightAware
06:15AM 42.3230 -2.2190 105° East 522 601 34,000  Level FlightAware
06:15AM 42.3040 -2.1220 105° East 522 601 34,000  Level FlightAware
06:16AM 42.2840 -2.0260 106° East 522 601 34,000  Level FlightAware
06:16AM 42.2650 -1.9300 105° East 522 601 34,000  Level FlightAware
06:17AM 42.2460 -1.8330 105° East 522 601 34,000  Level FlightAware
06:18AM 42.2270 -1.7370 105° East 522 601 34,000  Level FlightAware
06:18AM 42.2080 -1.6400 105° East 522 601 34,000  Level FlightAware
06:19AM 42.1890 -1.5440 105° East 522 601 34,000  Level FlightAware
06:19AM 42.1220 -1.2910 110° East 513 590 34,000  Level FlightAware
06:20AM 42.0970 -1.1740 106° East 513 590 34,000  Level FlightAware
06:21AM 42.0740 -1.0690 106° East 514 592 34,000  Level FlightAware
06:21AM 42.0400 -0.9130 106° East 514 592 34,000  Level FlightAware
06:22AM 42.0140 -0.7970 107° East 515 593 34,000  Level FlightAware
06:23AM 41.9890 -0.6830 106° East 515 593 34,000  Level FlightAware
06:24AM 41.9530 -0.5230 107° East 584 672 34,000  Level FlightAware
06:24AM 41.9250 -0.3950 106° East 510 587 34,000  Level FlightAware
06:25AM 41.9010 -0.2910 107° East 510 587 34,000  Level FlightAware
06:25AM 41.8740 -0.1670 106° East 510 587 34,000  Level FlightAware
06:26AM 41.8350 0.0010 107° East 512 589 34,000  Level FlightAware
06:27AM 41.8170 0.0830 106° East 513 590 34,000  Level FlightAware
06:28AM 41.7860 0.2220 107° East 512 589 34,000  Level FlightAware
06:28AM 41.7590 0.3340 108° East 509 586 34,000  Level FlightAware
06:29AM 41.7300 0.4590 107° East 508 585 34,000  Level FlightAware
06:29AM 41.7060 0.5590 108° East 507 583 34,000  Level FlightAware
06:30AM 41.6830 0.6550 108° East 508 585 34,000  Level FlightAware
06:31AM 41.6510 0.7830 108° East 509 586 34,000  Level FlightAware
06:31AM 41.6280 0.8700 109° East 509 586 34,000  Level FlightAware
06:32AM 41.5960 0.9910 109° East 511 588 34,000  Level FlightAware
06:32AM 41.5690 1.0960 109° East 514 592 34,000  Level FlightAware
06:33AM 41.5470 1.1820 109° East 514 592 34,000  Level FlightAware
06:34AM 41.5190 1.3070 107° East 515 593 34,000  Level FlightAware
06:34AM 41.4950 1.4140 107° East 514 592 34,000  Level FlightAware
06:35AM 41.4740 1.5050 107° East 515 593 34,000  Level FlightAware
06:35AM 41.4460 1.6230 108° East 514 592 34,000  Level FlightAware
06:36AM 41.4210 1.7240 108° East 514 592 34,000  Level FlightAware
06:37AM 41.3930 1.8320 109° East 512 589 34,000  Level FlightAware
06:37AM 41.3650 1.9400 109° East 513 590 34,000  Level FlightAware
06:38AM 41.3390 2.0420 109° East 512 589 34,000  Level FlightAware
06:38AM 41.3140 2.1530 107° East 515 593 34,000  Level FlightAware
06:39AM 41.2980 2.2490 102° East 518 596 34,000  Level FlightAware
06:39AM 41.2820 2.3510 102° East 518 596 34,000  Level FlightAware
06:40AM 41.2620 2.4790 102° East 519 597 34,000  Level FlightAware
06:41AM 41.2450 2.5820 102° East 519 597 34,000  Level FlightAware
06:41AM 41.2270 2.6890 103° East 518 596 34,000  Level FlightAware
06:42AM 41.2080 2.8000 103° East 518 596 34,000  Level FlightAware
06:42AM 41.1900 2.9050 103° East 518 596 34,000  Level FlightAware
06:43AM 41.1720 3.0130 102° East 519 597 34,000  Level FlightAware
06:44AM 41.1520 3.1240 103° East 517 595 34,000  Level FlightAware
06:44AM 41.1340 3.2330 102° East 517 595 34,000  Level FlightAware
06:45AM 41.1150 3.3420 103° East 516 594 34,000  Level FlightAware
06:45AM 41.0970 3.4440 103° East 516 594 34,000  Level FlightAware
06:46AM 41.0770 3.5500 104° East 514 592 34,000  Level FlightAware
06:46AM 41.0580 3.6580 103° East 512 589 34,000  Level FlightAware
06:47AM 41.0380 3.7700 103° East 509 586 34,000  Level FlightAware
06:48AM 41.0120 3.9160 103° East 505 581 34,000  Level FlightAware
06:48AM 40.9920 4.0270 103° East 503 579 34,000  Level FlightAware
06:49AM 40.9740 4.1280 103° East 504 580 34,000  Level FlightAware
06:50AM 40.9550 4.2270 104° East 504 580 34,000  Level FlightAware
06:50AM 40.9350 4.3400 103° East 506 582 34,000  Level FlightAware
06:51AM 40.9160 4.4420 104° East 508 585 34,000  Level FlightAware
06:51AM 40.8980 4.5370 104° East 508 585 34,000  Level FlightAware
06:52AM 40.8810 4.6290 104° East 511 588 34,000  Level FlightAware
06:53AM 40.8660 4.7470 100° East 509 586 34,000  Level FlightAware
06:53AM 40.8510 4.8510 101° East 509 586 34,000  Level FlightAware
06:54AM 40.8370 4.9440 101° East 509 586 34,000  Level FlightAware
06:54AM 40.8230 5.0400 101° East 509 586 34,000  Level FlightAware
06:55AM 40.8100 5.1290 101° East 509 586 34,000  Level FlightAware
06:56AM 40.8360 5.3150 79° East 618 711 34,000  Level FlightAware
06:56AM 40.8280 5.4550 94° East 504 580 34,000  Level FlightAware
06:57AM 40.8240 5.5400 94° East 504 580 34,000  Level FlightAware
06:57AM 40.8180 5.6390 95° East 503 579 34,000  Level FlightAware
06:58AM 40.8120 5.7430 94° East 501 577 34,000  Level FlightAware
06:59AM 40.8070 5.8200 95° East 501 577 34,000  Level FlightAware
06:59AM 40.7980 5.9760 94° East 499 574 34,000  Level FlightAware
07:00AM 40.7920 6.0810 94° East 497 572 34,000  Level FlightAware
07:00AM 40.7850 6.1930 95° East 496 571 34,000  Level FlightAware
07:01AM 40.7780 6.3070 95° East 496 571 34,000  Level FlightAware
07:01AM 40.7720 6.3980 95° East 496 571 34,000  Level FlightAware
07:02AM 40.7650 6.5060 95° East 495 570 34,000  Level FlightAware
07:03AM 40.7570 6.6240 95° East 493 567 34,000  Level FlightAware
07:03AM 40.7500 6.7410 94° East 493 567 34,000  Level FlightAware
07:04AM 40.7430 6.8470 95° East 494 568 34,000  Level FlightAware
07:05AM 40.7350 6.9680 95° East 494 568 34,000  Level FlightAware
07:05AM 40.7270 7.0750 96° East 495 570 34,000  Level FlightAware
07:06AM 40.7200 7.1770 95° East 495 570 34,000  Level FlightAware
07:06AM 40.7120 7.2840 96° East 494 568 34,000  Level FlightAware
07:07AM 40.7050 7.3880 95° East 492 566 34,000  Level FlightAware
07:08AM 40.6980 7.4940 95° East 491 565 34,000  Level FlightAware
07:08AM 40.6900 7.5970 96° East 491 565 34,000  Level FlightAware
07:09AM 40.6830 7.7020 95° East 491 565 34,000  Level FlightAware
07:09AM 40.6730 7.8070 97° East 491 565 34,000  Level FlightAware
07:10AM 40.6600 7.9110 99° East 491 565 34,000  Level FlightAware
07:11AM 40.6440 8.0430 99° East 492 566 34,000  Level FlightAware
07:11AM 40.6310 8.1330 101° East 490 564 34,000  Level FlightAware
07:12AM 40.6150 8.2430 101° East 490 564 34,000  Level FlightAware
07:12AM 40.6010 8.3410 101° East 488 562 34,000 120 Level FlightAware
07:13AM 40.5870 8.4460 100° East 489 563 34,200 840 Climbing FlightAware
07:14AM 40.5720 8.5490 101° East 491 565 35,000 660 Climbing FlightAware
07:14AM 40.5570 8.6540 101° East 492 566 35,000  Level FlightAware
07:15AM 40.5420 8.7560 101° East 491 565 35,000  Level FlightAware
07:15AM 40.5270 8.8590 101° East 489 563 35,000  Level FlightAware
07:16AM 40.5130 8.9600 100° East 489 563 35,000  Level FlightAware
07:16AM 40.4970 9.0640 101° East 489 563 35,000  Level FlightAware
07:17AM 40.4820 9.1650 101° East 490 564 35,000  Level FlightAware
07:18AM 40.4670 9.2680 101° East 490 564 35,000  Level FlightAware
07:18AM 40.4520 9.3700 101° East 493 567 35,000  Level FlightAware
07:19AM 40.4360 9.4740 101° East 494 568 35,000  Level FlightAware
07:19AM 40.4210 9.5760 101° East 495 570 35,000  Level FlightAware
07:20AM 40.4050 9.6800 101° East 494 568 35,000  Level FlightAware
07:21AM 40.3900 9.7800 101° East 492 566 35,000  Level FlightAware
07:21AM 40.3730 9.8850 102° East 492 566 35,000  Level FlightAware
07:22AM 40.3580 9.9870 101° East 492 566 35,000  Level FlightAware
07:22AM 40.3420 10.0890 102° East 493 567 35,000  Level FlightAware
07:23AM 40.3260 10.1910 102° East 494 568 35,000  Level FlightAware
07:24AM 40.3070 10.3100 102° East 495 570 35,000  Level FlightAware
07:24AM 40.2890 10.4250 102° East 495 570 35,000  Level FlightAware
07:25AM 40.2720 10.5300 102° East 495 570 35,000  Level FlightAware
07:25AM 40.2580 10.6150 102° East 495 570 35,000  Level FlightAware
07:26AM 40.2410 10.7200 102° East 495 570 35,000  Level FlightAware
07:27AM 40.2230 10.8350 102° East 494 568 35,000  Level FlightAware
07:27AM 40.2060 10.9390 102° East 494 568 35,000  Level FlightAware
07:28AM 40.1890 11.0410 102° East 493 567 35,000  Level FlightAware
07:28AM 40.1760 11.1150 103° East 494 568 35,000  Level FlightAware
07:29AM 40.1590 11.2170 102° East 494 568 35,000  Level FlightAware
07:29AM 40.1410 11.3210 103° East 495 570 35,000  Level FlightAware
07:30AM 40.1240 11.4210 103° East 495 570 35,000  Level FlightAware
07:30AM 40.1050 11.5270 103° East 495 570 35,000  Level FlightAware
07:31AM 40.0850 11.6460 102° East 496 571 35,000  Level FlightAware
07:32AM 40.0670 11.7490 103° East 497 572 35,000  Level FlightAware
07:32AM 40.0490 11.8510 103° East 496 571 35,000  Level FlightAware
07:33AM 40.0300 11.9580 103° East 496 571 35,000  Level FlightAware
07:33AM 40.0130 12.0580 102° East 496 571 35,000  Level FlightAware
07:34AM 39.9930 12.1670 103° East 496 571 35,000  Level FlightAware
07:35AM 39.9750 12.2700 103° East 497 572 35,000  Level FlightAware
07:35AM 39.9580 12.3640 103° East 497 572 35,000  Level FlightAware
07:36AM 39.9380 12.4720 104° East 497 572 35,000  Level FlightAware
07:36AM 39.9190 12.5750 103° East 497 572 35,000  Level FlightAware
07:37AM 39.9010 12.6760 103° East 497 572 35,000  Level FlightAware
07:38AM 39.8830 12.7700 104° East 497 572 35,000  Level FlightAware
07:38AM 39.8650 12.8680 103° East 497 572 35,000  Level FlightAware
07:39AM 39.8450 12.9790 103° East 498 573 35,000  Level FlightAware
07:39AM 39.8250 13.0840 104° East 498 573 35,000  Level FlightAware
07:40AM 39.8050 13.1880 104° East 497 572 35,000  Level FlightAware
07:40AM 39.7880 13.2810 103° East 496 571 35,000  Level FlightAware
07:41AM 39.7680 13.3860 104° East 495 570 35,000  Level FlightAware
07:42AM 39.7500 13.4810 104° East 495 570 35,000  Level FlightAware
07:42AM 39.7280 13.5920 104° East 495 570 35,000  Level FlightAware
07:43AM 39.7100 13.6860 104° East 494 568 35,000  Level FlightAware
07:43AM 39.6900 13.7890 104° East 494 568 35,000  Level FlightAware
07:44AM 39.6690 13.8970 104° East 494 568 35,000  Level FlightAware
07:45AM 39.6510 13.9900 104° East 494 568 35,000  Level FlightAware
07:45AM 39.6310 14.0910 104° East 494 568 35,000  Level FlightAware
07:46AM 39.6100 14.1960 105° East 493 567 35,000  Level FlightAware
07:46AM 39.5900 14.3000 104° East 492 566 35,000  Level FlightAware
07:47AM 39.5710 14.3910 105° East 492 566 35,000  Level FlightAware
07:47AM 39.5540 14.4780 104° East 492 566 35,000  Level FlightAware
07:48AM 39.5300 14.5940 105° East 492 566 35,000  Level FlightAware
07:49AM 39.5110 14.6870 105° East 492 566 35,000  Level FlightAware
07:49AM 39.4920 14.7810 105° East 491 565 35,000  Level FlightAware
07:50AM 39.4760 14.8630 104° East 491 565 35,000  Level FlightAware
07:50AM 39.4510 14.9780 106° East 489 563 35,000  Level FlightAware
07:51AM 39.4280 15.0900 105° East 490 564 35,000  Level FlightAware
07:52AM 39.4110 15.1720 105° East 490 564 35,000  Level FlightAware
07:52AM 39.3870 15.2840 105° East 490 564 35,000  Level FlightAware
07:53AM 39.3670 15.3780 105° East 491 565 35,000  Level FlightAware
07:53AM 39.3470 15.4760 105° East 491 565 35,000  Level FlightAware
07:54AM 39.3230 15.5860 106° East 490 564 35,000  Level FlightAware
07:54AM 39.3040 15.6750 105° East 490 564 35,000  Level FlightAware
07:55AM 39.2830 15.7760 105° East 489 563 35,000  Level FlightAware
07:56AM 39.2610 15.8770 106° East 490 564 35,000  Level FlightAware
07:56AM 39.2410 15.9660 106° East 489 563 35,000  Level FlightAware
07:57AM 39.2220 16.0530 106° East 489 563 35,000  Level FlightAware
07:57AM 39.1960 16.1740 105° East 489 563 35,000  Level FlightAware
07:58AM 39.1740 16.2720 106° East 489 563 35,000  Level FlightAware
07:59AM 39.1520 16.3710 106° East 489 563 35,000  Level FlightAware
07:59AM 39.1290 16.4710 106° East 489 563 35,000  Level FlightAware
08:00AM 39.1090 16.5650 105° East 491 565 35,000  Level FlightAware
08:00AM 39.0860 16.6630 107° East 492 566 35,000  Level FlightAware
08:01AM 39.0630 16.7650 106° East 492 566 35,000  Level FlightAware
08:01AM 39.0430 16.8560 106° East 493 567 35,000  Level FlightAware
08:02AM 39.0190 16.9620 106° East 493 567 35,000  Level FlightAware
08:03AM 38.9950 17.0640 107° East 495 570 35,000  Level FlightAware
08:03AM 38.9750 17.1540 106° East 496 571 35,000  Level FlightAware
08:04AM 38.9520 17.2500 107° East 496 571 35,000  Level FlightAware
08:04AM 38.9270 17.3580 107° East 497 572 35,000  Level FlightAware
08:05AM 38.9040 17.4600 106° East 497 572 35,000  Level FlightAware
08:06AM 38.8820 17.5510 107° East 497 572 35,000  Level FlightAware
08:06AM 38.8570 17.6590 107° East 498 573 35,000  Level FlightAware
08:07AM 38.8340 17.7550 107° East 498 573 35,000  Level FlightAware
08:07AM 38.8120 17.8480 107° East 499 574 35,000  Level FlightAware
08:08AM 38.7870 17.9510 107° East 501 577 35,000  Level FlightAware
08:09AM 38.7630 18.0540 107° East 501 577 35,000  Level FlightAware
08:09AM 38.7380 18.1570 107° East 502 578 35,000  Level FlightAware
08:10AM 38.7160 18.2460 108° East 502 578 35,000  Level FlightAware
08:10AM 38.6900 18.3550 107° East 502 578 35,000  Level FlightAware
08:11AM 38.6670 18.4500 107° East 502 578 35,000  Level FlightAware
08:11AM 38.6480 18.5240 108° East 503 579 35,000  Level FlightAware
08:12AM 38.6200 18.6400 107° East 504 580 35,000  Level FlightAware
08:13AM 38.5940 18.7470 107° East 505 581 35,000  Level FlightAware
08:13AM 38.5680 18.8500 108° East 505 581 35,000  Level FlightAware
08:14AM 38.5480 18.9300 108° East 505 581 35,000  Level FlightAware
08:15AM 38.5230 19.0350 107° East 505 581 35,000  Level FlightAware
08:15AM 38.5020 19.1230 107° East 505 581 35,000  Level FlightAware
08:16AM 38.4810 19.2100 107° East 505 581 35,000  Level FlightAware
08:16AM 38.4290 19.3460 116° Southeast 507 583 35,000  Level FlightAware
08:17AM 38.3970 19.4500 111° Southeast 506 582 35,000  Level FlightAware
08:17AM 38.3740 19.5280 111° Southeast 506 582 35,000  Level FlightAware
08:18AM 38.3400 19.6380 111° Southeast 504 580 35,000  Level FlightAware
08:19AM 38.3010 19.7670 111° Southeast 503 579 35,000  Level FlightAware
08:19AM 38.2750 19.8540 111° Southeast 501 577 35,000  Level FlightAware
08:20AM 38.2460 19.9450 112° Southeast 499 574 35,000  Level FlightAware
08:21AM 38.2110 20.0600 111° Southeast 498 573 35,000  Level FlightAware
08:21AM 38.1850 20.1480 111° Southeast 498 573 35,000  Level FlightAware
08:22AM 38.1590 20.2320 111° Southeast 498 573 35,000  Level FlightAware
08:23AM 38.1310 20.3250 111° Southeast 498 573 35,000  Level FlightAware
08:23AM 38.1050 20.4110 111° Southeast 498 573 35,000  Level FlightAware
08:24AM 38.0800 20.4940 111° Southeast 498 573 35,000  Level FlightAware
08:24AM 38.0540 20.5800 111° Southeast 498 573 35,000  Level FlightAware
08:25AM 37.9780 20.8140 112° Southeast 502 578 35,000  Level FlightAware
08:26AM 37.9380 20.9370 112° Southeast 505 581 35,000  Level FlightAware
08:27AM 37.9050 21.0420 112° Southeast 505 581 35,000  Level FlightAware
08:27AM 37.8650 21.1630 113° Southeast 507 583 35,000  Level FlightAware
08:28AM 37.8380 21.2500 111° Southeast 507 583 35,000  Level FlightAware
08:28AM 37.8020 21.3570 113° Southeast 509 586 35,000  Level FlightAware
08:29AM 37.7650 21.4730 112° Southeast 509 586 35,000  Level FlightAware
08:30AM 37.7320 21.5740 112° Southeast 509 586 35,000  Level FlightAware
08:30AM 37.7080 21.6480 112° Southeast 509 586 35,000  Level FlightAware
08:31AM 37.6750 21.7490 112° Southeast 509 586 35,000  Level FlightAware
08:31AM 37.6460 21.8380 112° Southeast 510 587 35,000  Level FlightAware
08:32AM 37.6130 21.9400 112° Southeast 510 587 35,000  Level FlightAware
08:33AM 37.5800 22.0400 113° Southeast 511 588 35,000  Level FlightAware
08:33AM 37.5520 22.1270 112° Southeast 511 588 35,000  Level FlightAware
08:34AM 37.5090 22.2550 113° Southeast 510 587 35,000  Level FlightAware
08:34AM 37.4740 22.3600 113° Southeast 511 588 35,000  Level FlightAware
08:35AM 37.4330 22.4850 112° Southeast 512 589 35,000  Level FlightAware
08:36AM 37.4120 22.5460 113° Southeast 511 588 35,000  Level FlightAware
08:36AM 37.3750 22.6590 112° Southeast 509 586 35,000  Level FlightAware
08:37AM 37.3430 22.7530 113° Southeast 510 587 35,000  Level FlightAware
08:37AM 37.3150 22.8360 113° Southeast 509 586 35,000  Level FlightAware
08:38AM 37.2870 22.9190 113° Southeast 510 587 35,000  Level FlightAware
08:39AM 37.2500 23.0250 114° Southeast 511 588 35,000  Level FlightAware
08:39AM 37.2130 23.1350 113° Southeast 512 589 35,000  Level FlightAware
08:40AM 37.1700 23.2600 113° Southeast 516 594 35,000  Level FlightAware
08:40AM 37.1410 23.3450 113° Southeast 515 593 35,000  Level FlightAware
08:41AM 37.1020 23.4580 113° Southeast 516 594 35,000  Level FlightAware
08:42AM 37.0720 23.5450 113° Southeast 516 594 35,000  Level FlightAware
08:42AM 37.0380 23.6430 113° Southeast 518 596 35,000  Level FlightAware
08:43AM 37.0030 23.7430 114° Southeast 519 597 35,000  Level FlightAware
08:43AM 36.9710 23.8380 113° Southeast 521 600 35,000  Level FlightAware
08:44AM 36.9340 23.9450 113° Southeast 522 601 35,000  Level FlightAware
08:45AM 36.9040 24.0320 113° Southeast 522 601 35,000  Level FlightAware
08:45AM 36.8700 24.1310 113° Southeast 524 603 35,000  Level FlightAware
08:46AM 36.8350 24.2310 114° Southeast 524 603 35,000  Level FlightAware
08:46AM 36.8010 24.3270 114° Southeast 526 605 35,000  Level FlightAware
08:47AM 36.7640 24.4330 114° Southeast 526 605 35,000  Level FlightAware
08:47AM 36.7340 24.5180 114° Southeast 527 606 35,000  Level FlightAware
08:48AM 36.6980 24.6200 114° Southeast 527 606 35,000  Level FlightAware
08:49AM 36.6650 24.7110 114° Southeast 528 608 35,000  Level FlightAware
08:49AM 36.6310 24.8070 114° Southeast 528 608 35,000  Level FlightAware
08:50AM 36.5920 24.9140 114° Southeast 529 609 35,000  Level FlightAware
08:50AM 36.5590 25.0030 115° Southeast 528 608 35,000  Level FlightAware
08:51AM 36.5220 25.1030 115° Southeast 527 606 35,000  Level FlightAware
08:52AM 36.4860 25.2020 114° Southeast 527 606 35,000  Level FlightAware
08:52AM 36.4600 25.2730 114° Southeast 527 606 35,000  Level FlightAware
08:53AM 36.4230 25.3730 115° Southeast 527 606 35,000  Level FlightAware
08:53AM 36.3870 25.4720 114° Southeast 526 605 35,000  Level FlightAware
08:54AM 36.3560 25.5550 115° Southeast 526 605 35,000  Level FlightAware
08:54AM 36.3170 25.6600 115° Southeast 526 605 35,000  Level FlightAware
08:55AM 36.2840 25.7500 114° Southeast 527 606 35,000  Level FlightAware
08:56AM 36.2430 25.8590 115° Southeast 526 605 35,000  Level FlightAware
08:56AM 36.2100 25.9490 114° Southeast 527 606 35,000  Level FlightAware
08:57AM 36.1730 26.0470 115° Southeast 527 606 35,000  Level FlightAware
08:57AM 36.1360 26.1470 115° Southeast 527 606 35,000  Level FlightAware
08:58AM 36.0990 26.2440 115° Southeast 527 606 35,000  Level FlightAware
08:58AM 36.0660 26.3310 115° Southeast 527 606 35,000  Level FlightAware
08:59AM 36.0330 26.4190 115° Southeast 527 606 35,000  Level FlightAware
08:59AM 36.0040 26.4960 115° Southeast 527 606 35,000  Level FlightAware
09:00AM 35.9650 26.5980 115° Southeast 526 605 35,000  Level FlightAware
09:01AM 35.9170 26.7220 116° Southeast 527 606 35,000  Level FlightAware
09:01AM 35.8840 26.8080 115° Southeast 526 605 35,000  Level FlightAware
09:02AM 35.8470 26.9060 115° Southeast 527 606 35,000  Level FlightAware
09:03AM 35.8050 27.0120 116° Southeast 527 606 35,000  Level FlightAware
09:04AM 35.7550 27.1430 115° Southeast 528 608 35,000  Level FlightAware
09:04AM 35.7240 27.2260 115° Southeast 528 608 35,000  Level FlightAware
09:05AM 35.6920 27.3100 115° Southeast 528 608 35,000  Level FlightAware
09:05AM 35.6600 27.3950 115° Southeast 528 608 35,000  Level FlightAware
09:06AM 35.6270 27.4810 115° Southeast 528 608 35,000  Level FlightAware
09:07AM 35.5950 27.5640 115° Southeast 528 608 35,000  Level FlightAware
09:07AM 35.5640 27.6480 114° Southeast 528 608 35,000  Level FlightAware
09:08AM 35.5220 27.7590 115° Southeast 528 608 35,000  Level FlightAware
09:09AM 35.4350 27.9470 120° Southeast 35,000  Level FlightAware
09:10AM 35.3630 28.1270 116° Southeast 527 606 35,000  Level FlightAware
09:10AM 35.3220 28.2280 116° Southeast 527 606 35,000  Level FlightAware
09:11AM 35.2880 28.3140 116° Southeast 527 606 35,000  Level FlightAware
09:11AM 35.2550 28.3940 117° Southeast 527 606 35,000  Level FlightAware
09:12AM 35.2170 28.4880 116° Southeast 528 608 35,000  Level FlightAware
09:13AM 35.1690 28.6060 116° Southeast 528 608 35,000  Level FlightAware
09:13AM 35.1330 28.6970 116° Southeast 528 608 35,000  Level FlightAware
09:14AM 35.1000 28.7790 116° Southeast 528 608 35,000  Level FlightAware
09:14AM 35.0670 28.8610 116° Southeast 528 608 35,000  Level FlightAware
09:15AM 35.0090 28.9980 117° Southeast 528 608 35,000  Level FlightAware
09:16AM 34.9760 29.0800 116° Southeast 528 608 35,000  Level FlightAware
09:16AM 34.9430 29.1620 116° Southeast 528 608 35,000  Level FlightAware
09:17AM 34.9100 29.2440 116° Southeast 528 608 35,000  Level FlightAware
09:17AM 34.8490 29.3790 119° Southeast 527 606 35,000  Level FlightAware
09:18AM 34.7940 29.5100 117° Southeast 525 604 35,000  Level FlightAware
09:19AM 34.7540 29.6050 117° Southeast 525 604 35,000  Level FlightAware
09:19AM 34.7140 29.6980 118° Southeast 522 601 35,000  Level FlightAware
09:20AM 34.6830 29.7730 117° Southeast 522 601 35,000  Level FlightAware
09:21AM 34.6370 29.8810 117° Southeast 523 602 35,000  Level FlightAware
09:21AM 34.6020 29.9640 117° Southeast 524 603 35,000  Level FlightAware
09:22AM 34.5620 30.0490 120° Southeast 524 603 35,000  Level FlightAware
09:22AM 34.5140 30.1420 122° Southeast 518 596 35,000  Level FlightAware
09:23AM 34.4700 30.2300 121° Southeast 519 597 35,000  Level FlightAware
09:23AM 34.4240 30.3230 121° Southeast 519 597 35,000  Level FlightAware
09:24AM 34.3800 30.4140 120° Southeast 517 595 35,000  Level FlightAware
09:25AM 34.3320 30.5120 121° Southeast 514 592 35,000  Level FlightAware
09:25AM 34.2930 30.5930 120° Southeast 513 590 35,000  Level FlightAware
09:26AM 34.2530 30.6730 121° Southeast 513 590 35,000  Level FlightAware
09:26AM 34.2090 30.7640 120° Southeast 517 595 35,000  Level FlightAware
09:27AM 34.1660 30.8520 121° Southeast 516 594 35,000  Level FlightAware
09:28AM 34.1250 30.9370 120° Southeast 515 593 35,000  Level FlightAware
09:28AM 34.0850 31.0170 121° Southeast 514 592 35,000  Level FlightAware
09:29AM 34.0380 31.1130 121° Southeast 513 590 35,000  Level FlightAware
09:29AM 34.0040 31.1840 120° Southeast 511 588 35,000  Level FlightAware
09:30AM 33.9580 31.2750 121° Southeast 511 588 35,000  Level FlightAware
09:31AM 33.9070 31.3810 120° Southeast 511 588 35,000  Level FlightAware
09:31AM 33.8620 31.4720 121° Southeast 511 588 35,000  Level FlightAware
09:32AM 33.8210 31.5560 120° Southeast 510 587 35,000  Level FlightAware
09:32AM 33.7770 31.6440 121° Southeast 509 586 35,000  Level FlightAware
09:33AM 33.7400 31.7200 120° Southeast 508 585 35,000  Level FlightAware
09:34AM 33.6980 31.8050 121° Southeast 507 583 35,000  Level FlightAware
09:34AM 33.6500 31.9000 121° Southeast 507 583 35,000  Level FlightAware
09:35AM 33.6070 31.9860 121° Southeast 506 582 35,000  Level FlightAware
09:35AM 33.5630 32.0740 121° Southeast 504 580 35,000  Level FlightAware
09:36AM 33.5280 32.1430 121° Southeast 504 580 35,000  Level FlightAware
09:36AM 33.4840 32.2290 122° Southeast 502 578 35,000 -240 Level FlightAware
09:37AM 33.4460 32.3040 121° Southeast 495 570 34,800 -840 Descending FlightAware
09:38AM 33.4010 32.3930 121° Southeast 485 558 34,000 -1,380 Descending FlightAware
09:38AM 33.3560 32.4810 121° Southeast 482 555 33,100 -1,320 Descending FlightAware
09:39AM 33.3250 32.5410 122° Southeast 478 550 32,600 -1,140 Descending FlightAware
09:39AM 33.2790 32.6320 121° Southeast 477 549 31,800 -1,380 Descending FlightAware
09:40AM 33.2320 32.7250 121° Southeast 473 544 30,900 -1,440 Descending FlightAware
09:41AM 33.1880 32.8110 121° Southeast 470 541 30,000 -1,260 Descending FlightAware
09:41AM 33.1480 32.8880 122° Southeast 467 537 29,300 -1,140 Descending FlightAware
09:42AM 33.1010 32.9800 121° Southeast 463 533 28,500 -1,200 Descending FlightAware
09:43AM 33.0630 33.0540 121° Southeast 459 528 27,800 -1,140 Descending FlightAware
09:43AM 33.0040 33.1680 122° Southeast 452 520 26,900 -1,140 Descending FlightAware
09:44AM 32.9600 33.2550 121° Southeast 442 509 26,100 -1,680 Descending FlightAware
09:45AM 32.9140 33.3430 122° Southeast 432 497 24,700 -1,980 Descending FlightAware
09:45AM 32.8810 33.4070 122° Southeast 421 484 23,700 -1,920 Descending FlightAware
09:46AM 32.8420 33.4810 122° Southeast 409 471 22,500 -1,860 Descending FlightAware
09:47AM 32.8090 33.5450 122° Southeast 399 459 21,500 -1,800 Descending FlightAware
09:47AM 32.7750 33.6110 121° Southeast 387 445 20,400 -1,860 Descending FlightAware
09:48AM 32.7440 33.6710 122° Southeast 379 436 19,400 -1,740 Descending FlightAware
09:48AM 32.7110 33.7350 121° Southeast 369 425 18,400 -1,680 Descending FlightAware
09:49AM 32.6820 33.7900 122° Southeast 360 414 17,500 -1,740 Descending FlightAware
09:49AM 32.6490 33.8530 122° Southeast 351 404 16,400 -1,680 Descending FlightAware
09:50AM 32.6210 33.9060 122° Southeast 344 396 15,600 -1,560 Descending FlightAware
09:51AM 32.5930 33.9610 121° Southeast 352 405 14,700 -1,440 Descending FlightAware
09:51AM 32.5600 34.0230 122° Southeast 356 410 13,900 -1,320 Descending FlightAware
09:52AM 32.5310 34.0800 121° Southeast 341 392 13,200 -1,260 Descending FlightAware
09:52AM 32.5000 34.1390 122° Southeast 326 375 12,400 -1,260 Descending FlightAware
09:53AM 32.4750 34.1800 126° Southeast 317 365 11,800 -1,500 Descending FlightAware
09:53AM 32.4370 34.2260 134° Southeast 315 362 10,800 -1,440 Descending FlightAware
09:54AM 32.4030 34.2650 136° Southeast 308 354 10,100 -1,020 Descending FlightAware
09:55AM 32.3690 34.3050 135° Southeast 293 337 9,600 -960 Descending FlightAware
09:55AM 32.3510 34.3260 135° Southeast 284 327 9,300 -1,440 Descending FlightAware
09:55AM 32.3320 34.3490 134° Southeast 287 330 8,700 -1,500 Descending FlightAware
09:56AM 32.3100 34.3760 134° Southeast 284 327 8,200 -1,380 Descending FlightAware
09:56AM 32.2960 34.3920 136° Southeast 284 327 7,900 -1,080 Descending FlightAware
09:56AM 32.2690 34.4260 133° Southeast 274 315 7,400 -1,200 Descending FlightAware
09:57AM 32.2500 34.4480 136° Southeast 272 313 6,900 -1,260 Descending FlightAware
09:57AM 32.2430 34.4570 133° Southeast 272 313 6,800 -1,200 Descending FlightAware
09:57AM 32.2250 34.4880 124° Southeast 270 311 6,200 -1,320 Descending FlightAware
09:58AM 32.2120 34.5140 121° Southeast 269 310 5,800 -1,260 Descending FlightAware
09:58AM 32.1980 34.5410 121° Southeast 268 308 5,300 -720 Descending FlightAware
09:59AM 32.1730 34.5880 122° Southeast 270 311 5,100 -120 Descending FlightAware
09:59AM 32.1520 34.6270 122° Southeast 271 312 5,200  Climbing FlightAware
09:59AM 32.1460 34.6390 121° Southeast 268 308 5,100  Descending FlightAware
10:00AM 32.1270 34.6730 123° Southeast 259 298 5,200 60 Climbing FlightAware
10:00AM 32.1130 34.6980 123° Southeast 244 281 5,200  Level FlightAware
10:01AM 32.0900 34.7420 122° Southeast 238 274 5,200 -120 Level FlightAware
10:01AM 32.0690 34.7760 126° Southeast 236 272 5,100 -540 Descending FlightAware
10:02AM 32.0530 34.7940 136° Southeast 228 262 4,800 -720 Descending FlightAware
10:02AM 32.0430 34.8050 137° Southeast 221 254 4,700 -300 Descending FlightAware
10:02AM 32.0250 34.8250 137° Southeast 209 241 4,600 -120 Descending FlightAware
10:03AM 32.0060 34.8480 134° Southeast 187 215 4,600 -540 Level FlightAware
10:03AM 31.9960 34.8590 137° Southeast 185 213 4,200 -1,500 Descending FlightAware
10:03AM 31.9870 34.8720 129° Southeast 186 214 3,900 -1,200 Descending FlightAware
10:04AM 31.9850 34.8780 111° Southeast 186 214 3,700 -1,440 Descending FlightAware
10:04AM 31.9890 34.9100 82° East 185 213 2,900 -1,380 Descending FlightAware
10:04AM 31.9920 34.9220 74° East 181 208 2,700 -960 Descending FlightAware
10:05AM 31.9980 34.9460 74° East 177 204 2,300 -1,080 Descending FlightAware
10:05AM 32.0030 34.9550 57° Northeast 177 204 2,100 -960 Descending FlightAware
10:05AM 32.0140 34.9620 28° Northeast 171 197 1,900 -900 Descending FlightAware
10:06AM 32.0330 34.9580 350° North 163 188 1,500 -780 Descending FlightAware
10:06AM 32.0350 34.9560 320° Northwest 163 188 1,500 -1,020 Level FlightAware
10:06AM 32.0400 34.9360 286° West 157 181 1,000 -960 Descending FlightAware
10:06AM 32.0370 34.9190 258° West 157 181 800 -300 Descending FlightAware
10:07AM 32.0340 34.9010 259° West 157 181 800  Level FlightAware